Portada
METAR-TAF:

METAR-TAF

Aeroports :

Talara, Perú

latitud: 04-34S, longitud: 081-15W, altitud: 85 m

Observació

L'informe es va fer fa 48 minuts, a les 16:00 UTC
Vent 13 kt del Sud
Temperatura 23°C
Humitat 65%
Pressió 1015 hPa
Visibilitat 10 km o més
sense núvols per sota de 1500 mi sense presència de cumulonimbus.

METAR: SPYL 241600Z 17013KT CAVOK 23/16 Q1015 RMK BIRD HAZARD RWY 17/35 PP000

Hora: 11:48 (16:48 UTC)

Pronòstic

L'informe es va fer fa 6 hores i 18 minuts, a les 10:30 UTC
Pronòstic vàlid del 24 a les 12 UTC al 25 a les 12 UTC
Vent 15 kt del Sud
Visibilitat 10 km o més
Núvols disperses a una alçada de 4000 ft
A partir de les 24 a les 1700 UTC
Vent 12 kt del Sud/Sud-Oest
Visibilitat 10 km o més
sense núvols per sota de 1500 mi sense presència de cumulonimbus.

TAF: SPYL 241030Z 2412/2512 17015KT 9999 SCT040 TX25/2419Z TN15/2511Z FM241700 20012KT CAVOK

Observacions i pronòstics meteorològics de més de 4000 aeroports (METAR i TAF).

Les estacions disponibles són els punts grocs i vermells al mapa.

Posi el ratolí al punt desitjat per veure el nom de l'estació.

Feu clic per veure les observacions i els pronòstics meteorològics.

Per canviar el mapa: feu clic els botons verds amb una creu de color negre per apropar; al botó verd amb un guió per allunyar la imatge; o en les fletxes verdes per a mapes adjacents.


METAR-TAF: